Chicopee, MA

7:11 PM EST on January 27, 2015 (GMT -0500)
Westover Air Reserve Base / Metropolitan Airport | Change Station
CLOSE
Current Station
Airport
Location: Chicopee,
Elevation: 246 ft
Nearby Weather Stations

Elev 246 ft 42.19 °N, 72.53 °W | Updated 13 minutes ago

Overcast
Overcast
16 °F
Feels Like -3 °F
N
24
Wind Variable Wind from North
Gusts 32 mph

Today
High -- | Low -- °F
--% Chance of Precip.
Yesterday
High -- | Low -- °F
Precip. -- in
7:08 AM 4:57 PM
First Quarter, 59% visible
Pressure 29.70 in
Visibility 4.0 miles
Clouds Overcast 3500 ft
Windchill -3 °F
Dew Point 5 °F
Humidity 62%
Rainfall 0.37 in
Snow Depth Not available.
UV 0 out of 12
Pollen .10 out of 12
Air Quality Not available.
Flu Activity Not available.
METAR KCEF 272358Z 01021G28KT 4SM -SN OVC035 M09/M15 A2967 RMK AO2A PK WND 36034/30 SLP058 60000 52030

More Conditions Fewer Conditions

Pressure 29.70 in
Visibility 4.0 miles
Clouds Overcast 3500 ft
Windchill -3 °F
Dew Point 5 °F
Humidity 62%
Rainfall 0.37 in
Snow Depth Not available.
UV 0 out of 12
Pollen .10 out of 12
Air Quality Not available.
Flu Activity Not available.
METAR KCEF 272358Z 01021G28KT 4SM -SN OVC035 M09/M15 A2967 RMK AO2A PK WND 36034/30 SLP058 60000 52030

More Conditions Fewer Conditions

10-Day Weather Forecast

Almanac

Astronomy

Jan. 27, 2015 Rise Set
Actual Time
Civil Twilight
Nautical Twilight
Astronomical Twilight
Moon
Length of Visible Light
Length of Day
Tomorrow will be .
, % of the Moon is Illuminated

Today's Extremes

State Highs State Lows

Community

WunderPhotos

Upload Photos

1,790,990 photos uploaded!

WunderBlogs® & News

Nearby

Air Quality

  Air Quality AQ Index Pollutant
Not available.

Snow Depth

Station Depth Elevation

Earthquake Activity

City Distance Mag. Time & Date
Minimum magnitude displayed is 2.5.

Coastal Water Temperatures

Place Temperature

Nearby Weather Stations